Time;durP1;ratioP1;P1;durP2;ratioP2;P2;SDS_P1;SDS_P2;PMS_P1;PMS_P2;Temp;Humidity;BMP_temperature;BMP_pressure;BME280_temperature;BME280_humidity;BME280_pressure;Samples;Min_cycle;Max_cycle;Signal;HPM_P1;HPM_P2
2021/07/18 00:00:30;;;;;;;4.95;2.42;;;;;;;22.01;87.31;101502.59;5018957;28;22323;-75
2021/07/18 00:02:56;;;;;;;5.03;2.22;;;;;;;21.94;87.94;101495.22;5017293;28;20037;-75
2021/07/18 00:05:22;;;;;;;8.88;2.60;;;;;;;21.84;87.92;101495.31;5025487;28;20405;-75
2021/07/18 00:07:47;;;;;;;4.85;2.25;;;;;;;21.82;88.60;101489.47;5030290;28;20048;-75
2021/07/18 00:10:13;;;;;;;7.57;2.00;;;;;;;21.78;88.66;101494.97;5024477;28;20112;-75
2021/07/18 00:12:39;;;;;;;4.95;2.20;;;;;;;21.77;88.42;101495.41;5019780;28;20037;-75
2021/07/18 00:15:10;;;;;;;8.93;2.15;;;;;;;21.68;88.88;101489.63;5029357;28;20088;-75
2021/07/18 00:17:37;;;;;;;3.83;1.90;;;;;;;21.62;89.35;101485.78;5034202;28;20083;-75
2021/07/18 00:20:06;;;;;;;8.15;2.60;;;;;;;21.71;88.91;101494.28;5024762;28;20021;-75
2021/07/18 00:22:32;;;;;;;5.18;2.05;;;;;;;21.63;89.40;101490.06;5031949;28;20029;-75
2021/07/18 00:24:57;;;;;;;3.97;1.77;;;;;;;21.66;89.57;101492.00;5032739;28;20021;-75
2021/07/18 00:27:23;;;;;;;7.13;2.30;;;;;;;21.65;89.08;101501.41;5028651;28;20493;-75
2021/07/18 00:29:48;;;;;;;8.40;2.50;;;;;;;21.45;90.45;101493.00;5023343;28;20080;-75
2021/07/18 00:32:13;;;;;;;8.00;2.20;;;;;;;21.38;91.09;101496.63;5031492;28;20045;-75
2021/07/18 00:34:39;;;;;;;6.10;1.98;;;;;;;21.43;91.33;101496.16;5031610;28;20390;-75
2021/07/18 00:37:05;;;;;;;4.60;2.15;;;;;;;21.42;91.38;101491.09;5023948;28;20087;-75
2021/07/18 00:39:30;;;;;;;7.07;2.40;;;;;;;21.47;90.76;101491.41;5030877;28;20148;-75
2021/07/18 00:41:55;;;;;;;9.15;2.20;;;;;;;21.32;91.81;101492.75;5033325;28;20498;-75
2021/07/18 00:44:21;;;;;;;4.85;2.15;;;;;;;21.31;92.00;101495.91;5027103;28;20029;-75
2021/07/18 00:46:46;;;;;;;4.85;2.20;;;;;;;21.28;92.34;101494.75;5021885;28;20044;-75
2021/07/18 00:49:12;;;;;;;8.85;2.22;;;;;;;21.36;92.01;101490.75;5031043;28;20036;-75
2021/07/18 00:51:37;;;;;;;4.78;2.33;;;;;;;21.32;91.89;101484.53;5030389;28;20090;-75
2021/07/18 00:54:03;;;;;;;6.07;2.08;;;;;;;21.34;91.60;101487.66;5030148;28;20440;-75
2021/07/18 00:56:29;;;;;;;5.30;2.22;;;;;;;21.31;91.92;101484.94;5031232;28;20040;-75
2021/07/18 00:58:57;;;;;;;5.55;2.40;;;;;;;21.34;91.36;101486.88;5030700;28;20029;-75
2021/07/18 01:01:22;;;;;;;12.63;2.70;;;;;;;21.30;91.56;101481.44;5024674;28;20743;-75
2021/07/18 01:03:48;;;;;;;8.43;2.47;;;;;;;21.12;92.13;101483.56;5029860;28;20112;-75
2021/07/18 01:06:13;;;;;;;6.40;2.13;;;;;;;21.21;92.20;101488.56;5030864;28;20041;-75
2021/07/18 01:08:39;;;;;;;5.25;2.17;;;;;;;21.14;92.33;101483.94;5026135;28;20048;-75
2021/07/18 01:11:04;;;;;;;5.82;2.28;;;;;;;21.13;92.91;101482.38;5031705;28;20032;-75
2021/07/18 01:13:30;;;;;;;6.20;2.15;;;;;;;21.13;92.82;101498.03;5032019;28;20554;-75
2021/07/18 01:15:56;;;;;;;6.78;2.20;;;;;;;21.11;92.81;101486.69;5042255;28;20040;-75
2021/07/18 01:18:22;;;;;;;4.85;2.40;;;;;;;21.06;93.10;101487.91;5022542;28;20179;-75
2021/07/18 01:20:48;;;;;;;4.88;2.40;;;;;;;21.12;92.90;101486.28;5027506;28;20112;-75
2021/07/18 01:23:14;;;;;;;4.47;2.33;;;;;;;21.14;92.67;101488.63;5032363;28;20499;-75
2021/07/18 01:25:41;;;;;;;6.25;2.28;;;;;;;21.11;93.11;101484.75;5011881;28;20168;-75
2021/07/18 01:28:09;;;;;;;3.58;2.42;;;;;;;21.04;93.31;101492.25;5023237;28;20375;-75
2021/07/18 01:30:35;;;;;;;6.80;2.35;;;;;;;21.01;93.22;101491.09;5001532;28;20079;-74
2021/07/18 01:33:01;;;;;;;4.30;2.25;;;;;;;21.03;93.06;101493.44;5031636;28;20041;-75
2021/07/18 01:35:27;;;;;;;6.63;2.30;;;;;;;21.01;93.51;101495.78;5021733;28;20100;-75
2021/07/18 01:37:54;;;;;;;6.13;2.67;;;;;;;21.02;93.04;101503.59;5027282;28;20021;-74
2021/07/18 01:40:20;;;;;;;6.75;2.70;;;;;;;21.03;93.68;101498.91;5032306;28;20037;-74
2021/07/18 01:42:45;;;;;;;6.38;2.90;;;;;;;20.96;93.50;101499.75;5029589;28;20033;-75
2021/07/18 01:45:11;;;;;;;6.97;3.20;;;;;;;20.97;93.75;101505.97;5031073;28;20025;-75
2021/07/18 01:47:37;;;;;;;9.73;2.63;;;;;;;20.92;93.80;101504.47;5032142;28;20037;-76
2021/07/18 01:50:05;;;;;;;6.47;2.35;;;;;;;20.92;93.63;101495.47;5024771;28;20038;-74
2021/07/18 01:52:31;;;;;;;7.95;2.88;;;;;;;20.94;93.87;101491.13;5027297;28;20033;-74
2021/07/18 01:54:56;;;;;;;10.13;2.47;;;;;;;20.86;94.14;101500.59;5023112;28;20540;-74
2021/07/18 01:57:22;;;;;;;5.70;2.60;;;;;;;20.89;93.79;101499.78;5026770;28;20047;-74
2021/07/18 01:59:47;;;;;;;7.00;2.40;;;;;;;20.78;94.78;101479.91;5028522;28;20029;-76
2021/07/18 02:02:13;;;;;;;7.38;2.28;;;;;;;20.79;94.59;101503.38;5019029;28;20033;-75
2021/07/18 02:04:39;;;;;;;4.72;2.42;;;;;;;20.80;94.31;101494.00;5024856;28;20045;-74
2021/07/18 02:07:05;;;;;;;5.72;2.30;;;;;;;20.79;94.09;101497.91;5031899;28;20048;-74
2021/07/18 02:09:35;;;;;;;8.68;2.58;;;;;;;20.81;94.48;101495.53;5028086;28;20471;-74
2021/07/18 02:12:01;;;;;;;8.55;2.67;;;;;;;20.69;95.22;101501.53;5027982;28;20036;-75
2021/07/18 02:14:27;;;;;;;4.28;2.40;;;;;;;20.64;95.57;101510.13;5031227;28;20405;-74
2021/07/18 02:16:53;;;;;;;6.80;2.28;;;;;;;20.57;96.02;101504.72;5030195;28;20033;-75
2021/07/18 02:19:19;;;;;;;7.55;2.30;;;;;;;20.52;96.07;101516.88;5025015;28;20037;-74
2021/07/18 02:21:44;;;;;;;5.63;2.65;;;;;;;20.57;95.92;101510.19;5025688;28;20104;-74
2021/07/18 02:24:10;;;;;;;6.93;2.65;;;;;;;20.58;95.69;101511.75;5013623;28;20874;-74
2021/07/18 02:26:37;;;;;;;6.97;2.10;;;;;;;20.55;95.84;101507.88;5031299;28;20029;-74
2021/07/18 02:29:03;;;;;;;4.32;2.45;;;;;;;20.52;95.68;101496.91;5040007;28;20052;-75
2021/07/18 02:31:29;;;;;;;7.53;2.45;;;;;;;20.56;95.92;101498.47;5029750;28;20037;-75
2021/07/18 02:33:54;;;;;;;7.75;2.55;;;;;;;20.45;96.40;101491.50;5013604;28;20516;-74
2021/07/18 02:36:20;;;;;;;6.68;2.50;;;;;;;20.41;96.57;101493.47;5028376;28;20029;-75
2021/07/18 02:38:46;;;;;;;5.00;2.72;;;;;;;20.52;95.75;101485.97;5031264;28;20040;-75
2021/07/18 02:41:12;;;;;;;10.23;2.88;;;;;;;20.48;95.65;101496.94;5030204;28;20022;-75
2021/07/18 02:43:39;;;;;;;5.63;2.28;;;;;;;20.43;96.42;101485.66;5029904;28;20037;-74
2021/07/18 02:46:06;;;;;;;9.07;2.55;;;;;;;20.33;96.95;101486.50;5030717;28;20034;-75
2021/07/18 02:48:32;;;;;;;11.90;2.40;;;;;;;20.38;96.64;101486.09;5031272;28;20076;-74
2021/07/18 02:50:57;;;;;;;7.63;2.60;;;;;;;20.36;96.61;101477.50;5030401;28;20393;-75
2021/07/18 02:53:22;;;;;;;5.72;2.67;;;;;;;20.32;96.77;101479.47;5031194;28;20049;-75
2021/07/18 02:55:48;;;;;;;6.35;2.38;;;;;;;20.31;96.83;101486.13;5029597;28;20033;-74
2021/07/18 02:58:13;;;;;;;4.85;2.25;;;;;;;20.30;96.92;101479.88;5031141;28;20061;-74
2021/07/18 03:00:39;;;;;;;9.00;2.50;;;;;;;20.31;96.93;101480.63;5029263;28;20537;-74
2021/07/18 03:03:05;;;;;;;5.45;2.85;;;;;;;20.20;97.73;101479.94;5031339;28;20041;-74
2021/07/18 03:05:31;;;;;;;6.07;2.45;;;;;;;20.25;97.38;101483.03;5030165;28;20037;-74
2021/07/18 03:07:56;;;;;;;4.88;2.75;;;;;;;20.26;97.63;101472.88;5026057;28;20042;-75
2021/07/18 03:10:23;;;;;;;8.52;3.08;;;;;;;20.23;97.78;101473.66;5024804;28;20045;-75
2021/07/18 03:12:49;;;;;;;6.38;2.67;;;;;;;20.25;97.83;101484.97;5029480;28;20038;-74
2021/07/18 03:15:15;;;;;;;6.95;2.45;;;;;;;20.27;97.99;101483.41;5021856;28;20091;-75
2021/07/18 03:17:41;;;;;;;4.40;2.45;;;;;;;20.22;98.31;101486.56;5030541;28;20033;-74
2021/07/18 03:20:10;;;;;;;7.60;2.53;;;;;;;20.23;98.36;101481.84;5030426;28;20470;-75
2021/07/18 03:22:36;;;;;;;10.07;3.20;;;;;;;20.18;98.83;101482.25;5030898;28;20037;-74
2021/07/18 03:25:07;;;;;;;5.50;2.85;;;;;;;20.15;98.79;101477.59;5025692;28;20029;-74
2021/07/18 03:27:33;;;;;;;6.20;2.25;;;;;;;20.23;98.84;101468.19;5030730;28;20107;-74
2021/07/18 03:29:58;;;;;;;6.05;2.60;;;;;;;20.19;99.08;101472.91;5029162;28;20033;-74
2021/07/18 03:32:24;;;;;;;8.90;2.92;;;;;;;20.17;99.50;101469.78;5029471;28;20409;-75
2021/07/18 03:34:49;;;;;;;6.68;2.80;;;;;;;20.23;99.24;101468.19;5028308;28;20044;-74
2021/07/18 03:37:15;;;;;;;6.75;2.63;;;;;;;20.22;99.62;101461.94;5030759;28;20490;-74
2021/07/18 03:39:41;;;;;;;8.70;2.85;;;;;;;20.25;99.24;101460.34;5028857;28;20029;-75
2021/07/18 03:42:07;;;;;;;6.25;2.80;;;;;;;20.22;99.82;101459.22;5030208;28;20040;-75
2021/07/18 03:44:32;;;;;;;7.88;2.90;;;;;;;20.26;99.65;101459.97;5022179;28;20031;-74
2021/07/18 03:46:58;;;;;;;7.20;2.75;;;;;;;20.21;99.80;101460.38;5031749;28;20028;-74
2021/07/18 03:49:23;;;;;;;6.75;3.35;;;;;;;20.22;99.87;101470.16;5034500;28;20046;-74
2021/07/18 03:51:49;;;;;;;7.95;3.00;;;;;;;20.21;100.00;101474.06;5032901;28;20371;-74
2021/07/18 03:54:14;;;;;;;10.50;3.50;;;;;;;20.31;99.96;101469.69;5033833;28;20029;-75
2021/07/18 03:56:40;;;;;;;5.47;2.80;;;;;;;20.26;100.00;101472.88;5033074;28;20073;-74
2021/07/18 03:59:05;;;;;;;5.32;2.92;;;;;;;20.29;99.80;101472.06;5038672;28;20056;-75
2021/07/18 04:01:31;;;;;;;6.53;3.15;;;;;;;20.31;100.00;101475.16;5043294;28;20056;-74
2021/07/18 04:03:56;;;;;;;9.43;3.90;;;;;;;20.33;100.00;101473.59;5033726;28;20014;-74
2021/07/18 04:06:21;;;;;;;7.28;3.60;;;;;;;20.35;99.47;101473.19;5032381;28;20406;-75
2021/07/18 04:08:47;;;;;;;6.22;3.15;;;;;;;20.29;100.00;101472.84;5029277;28;20029;-74
2021/07/18 04:11:13;;;;;;;8.48;3.15;;;;;;;20.36;100.00;101474.75;5033188;28;20559;-74
2021/07/18 04:13:39;;;;;;;9.13;3.53;;;;;;;20.33;100.00;101481.81;5015985;28;20132;-74
2021/07/18 04:16:05;;;;;;;8.90;3.15;;;;;;;20.40;100.00;101478.25;5028652;28;20109;-74
2021/07/18 04:18:31;;;;;;;6.63;3.15;;;;;;;20.40;100.00;101478.25;5033083;28;20417;-74
2021/07/18 04:20:57;;;;;;;4.63;3.33;;;;;;;20.48;99.89;101486.00;5032610;28;20030;-75
2021/07/18 04:23:22;;;;;;;6.35;3.00;;;;;;;20.58;99.14;101482.41;5016333;28;20087;-74
2021/07/18 04:25:48;;;;;;;10.00;3.05;;;;;;;20.60;99.82;101482.78;5032082;28;20029;-74
2021/07/18 04:28:14;;;;;;;5.90;2.75;;;;;;;20.58;100.00;101484.38;5033958;28;20116;-75
2021/07/18 04:30:40;;;;;;;6.03;3.17;;;;;;;20.64;100.00;101478.06;5028369;28;20486;-75
2021/07/18 04:33:06;;;;;;;5.72;2.92;;;;;;;20.69;99.55;101474.13;5028967;28;20451;-74
2021/07/18 04:35:31;;;;;;;13.40;3.20;;;;;;;20.70;99.63;101486.63;5033210;28;20025;-74
2021/07/18 04:37:57;;;;;;;8.38;3.03;;;;;;;20.73;99.05;101490.53;5034034;28;20037;-74
2021/07/18 04:40:24;;;;;;;5.85;2.50;;;;;;;20.77;99.18;101486.56;5014477;28;20117;-74
2021/07/18 04:42:49;;;;;;;6.65;2.78;;;;;;;20.82;99.86;101491.63;5032309;28;20507;-75
2021/07/18 04:45:15;;;;;;;7.45;2.78;;;;;;;20.78;99.53;101488.13;5031377;28;20125;-74
2021/07/18 04:47:51;;;;;;;6.35;2.90;;;;;;;20.81;98.91;101494.78;5033858;28;20057;-74
2021/07/18 04:50:18;;;;;;;5.95;2.75;;;;;;;20.98;98.54;101485.63;5028429;28;20056;-75
2021/07/18 04:52:44;;;;;;;8.85;2.90;;;;;;;21.01;98.10;101485.63;5033671;28;20045;-75
2021/07/18 04:55:10;;;;;;;3.95;2.33;;;;;;;21.03;97.41;101483.25;5014050;28;20029;-74
2021/07/18 04:57:37;;;;;;;8.68;2.70;;;;;;;21.09;96.94;101484.38;5033327;28;20059;-75
2021/07/18 05:00:07;;;;;;;3.88;2.35;;;;;;;21.04;97.75;101479.31;5032698;28;20037;-74
2021/07/18 05:02:32;;;;;;;6.13;2.58;;;;;;;21.10;97.82;101480.44;5033114;28;20045;-74
2021/07/18 05:04:58;;;;;;;7.65;2.85;;;;;;;21.17;97.16;101466.69;5032606;28;20025;-75
2021/07/18 05:07:24;;;;;;;5.15;2.40;;;;;;;21.27;96.34;101470.50;5032526;28;20033;-75
2021/07/18 05:09:49;;;;;;;6.80;2.67;;;;;;;21.27;96.53;101476.75;5034776;28;20120;-74
2021/07/18 05:12:15;;;;;;;6.43;2.95;;;;;;;21.32;96.38;101475.53;5026981;28;20091;-74
2021/07/18 05:14:42;;;;;;;4.40;2.60;;;;;;;21.38;96.50;101474.69;5032452;28;20079;-74
2021/07/18 05:17:08;;;;;;;8.38;2.90;;;;;;;21.66;95.46;101478.28;5030276;28;20080;-74
2021/07/18 05:19:33;;;;;;;4.57;2.50;;;;;;;21.91;94.16;101487.03;5032891;28;20084;-75
2021/07/18 05:22:00;;;;;;;3.45;2.60;;;;;;;22.11;92.77;101474.19;5033028;28;20041;-75
2021/07/18 05:24:25;;;;;;;5.10;2.30;;;;;;;22.29;92.19;101491.22;5032446;28;20112;-74
2021/07/18 05:26:52;;;;;;;5.20;2.20;;;;;;;22.59;90.67;101476.69;5030843;28;20112;-74
2021/07/18 05:29:18;;;;;;;10.20;2.60;;;;;;;22.95;88.83;101478.44;5032700;28;20060;-75
2021/07/18 05:31:45;;;;;;;4.45;1.83;;;;;;;23.57;85.57;101482.41;5031271;28;20064;-74
2021/07/18 05:34:10;;;;;;;7.30;2.40;;;;;;;24.22;82.45;101472.41;5021977;28;20080;-74
2021/07/18 05:36:36;;;;;;;4.70;2.10;;;;;;;24.83;79.45;101482.38;5026611;28;20045;-75
2021/07/18 05:39:02;;;;;;;6.30;1.95;;;;;;;25.15;77.72;101486.28;5032674;28;20017;-75
2021/07/18 05:41:28;;;;;;;5.57;1.67;;;;;;;25.68;75.10;101489.19;5029488;28;20120;-76
2021/07/18 05:43:53;;;;;;;3.58;2.08;;;;;;;26.09;73.32;101487.63;5031163;28;20104;-75
2021/07/18 05:46:19;;;;;;;6.28;1.88;;;;;;;26.53;71.42;101495.69;5030614;28;20087;-74
2021/07/18 05:48:44;;;;;;;6.43;1.88;;;;;;;26.87;69.45;101491.47;5031234;28;20014;-75
2021/07/18 05:51:09;;;;;;;7.13;2.30;;;;;;;27.26;68.05;101491.66;5031262;28;20031;-75
2021/07/18 05:53:35;;;;;;;5.65;1.70;;;;;;;27.53;66.88;101499.44;5031862;28;20064;-74
2021/07/18 05:56:00;;;;;;;4.30;1.58;;;;;;;27.72;66.18;101495.56;5031698;28;20543;-74
2021/07/18 05:58:26;;;;;;;3.78;1.80;;;;;;;27.80;65.75;101488.53;5028045;28;20498;-75
2021/07/18 06:00:51;;;;;;;6.68;1.70;;;;;;;27.94;65.15;101501.91;5031839;28;20514;-75
2021/07/18 06:03:17;;;;;;;5.93;1.60;;;;;;;28.00;65.27;101497.31;5032368;28;20033;-75
2021/07/18 06:05:42;;;;;;;4.00;1.38;;;;;;;28.08;63.69;101497.81;5031344;28;20397;-74
2021/07/18 06:08:08;;;;;;;5.18;1.60;;;;;;;28.03;63.05;101506.72;5024956;28;20086;-75
2021/07/18 06:10:33;;;;;;;3.60;1.50;;;;;;;27.92;64.35;101498.78;5029182;28;20029;-75
2021/07/18 06:12:58;;;;;;;4.03;1.60;;;;;;;27.92;64.74;101500.78;5031738;28;20036;-76
2021/07/18 06:15:27;;;;;;;3.20;1.80;;;;;;;28.01;63.25;101501.63;5029680;28;20127;-74
2021/07/18 06:17:53;;;;;;;5.75;1.88;;;;;;;27.85;64.13;101509.34;5030311;28;20103;-75
2021/07/18 06:20:19;;;;;;;3.05;1.52;;;;;;;27.73;64.99;101501.88;5030555;28;20497;-75
2021/07/18 06:22:45;;;;;;;3.95;1.38;;;;;;;27.77;64.89;101505.31;5030708;28;20041;-75
2021/07/18 06:25:11;;;;;;;9.00;1.65;;;;;;;27.86;64.11;101505.34;5031004;28;20025;-74
2021/07/18 06:27:40;;;;;;;5.53;1.45;;;;;;;27.77;65.08;101508.06;5017752;28;20120;-76
2021/07/18 06:30:06;;;;;;;3.45;1.42;;;;;;;27.68;64.53;101515.09;5031629;28;20021;-74
2021/07/18 06:32:31;;;;;;;8.25;1.80;;;;;;;27.68;65.58;101508.78;5010592;28;20042;-75
2021/07/18 06:34:57;;;;;;;7.68;1.70;;;;;;;27.74;65.25;101504.19;5027118;28;20140;-75
2021/07/18 06:37:22;;;;;;;6.68;1.50;;;;;;;27.72;65.28;101506.66;5030202;28;20037;-75
2021/07/18 06:39:48;;;;;;;3.47;1.48;;;;;;;27.66;65.19;101514.00;5031286;28;20421;-75
2021/07/18 06:42:13;;;;;;;4.95;1.67;;;;;;;27.55;65.35;101513.59;5031511;28;20049;-75
2021/07/18 06:44:39;;;;;;;3.97;1.30;;;;;;;27.51;65.57;101519.28;5029393;28;20024;-74
2021/07/18 06:47:05;;;;;;;3.35;1.60;;;;;;;27.41;65.41;101512.13;5029826;28;20037;-75
2021/07/18 06:49:30;;;;;;;7.72;1.77;;;;;;;27.44;65.78;101514.00;5030946;28;20040;-75
2021/07/18 06:51:55;;;;;;;6.95;1.63;;;;;;;27.48;66.04;101505.56;5029815;28;20398;-75
2021/07/18 06:54:21;;;;;;;1.70;1.40;;;;;;;27.52;66.87;101507.00;5030762;28;20025;-74
2021/07/18 06:56:46;;;;;;;6.20;1.75;;;;;;;27.49;66.43;101507.09;5030862;28;20144;-75
2021/07/18 06:59:12;;;;;;;4.47;1.45;;;;;;;27.50;65.14;101505.88;5029733;28;20044;-75
2021/07/18 07:01:37;;;;;;;8.38;1.60;;;;;;;27.36;64.91;101509.94;5021415;28;20273;-75
2021/07/18 07:04:03;;;;;;;4.75;1.40;;;;;;;27.33;65.52;101512.84;5028566;28;20036;-75
2021/07/18 07:06:28;;;;;;;5.22;1.40;;;;;;;27.42;64.03;101512.91;5029503;28;20410;-75
2021/07/18 07:08:54;;;;;;;5.25;1.60;;;;;;;27.39;65.33;101511.78;5030559;28;20033;-74
2021/07/18 07:11:20;;;;;;;5.43;1.60;;;;;;;27.21;65.92;101516.38;5022792;28;20640;-74
2021/07/18 07:13:46;;;;;;;4.65;1.50;;;;;;;27.19;66.32;101510.53;5030380;28;20899;-75
2021/07/18 07:16:12;;;;;;;4.70;1.50;;;;;;;27.30;67.22;101510.91;5017050;28;20112;-75
2021/07/18 07:18:37;;;;;;;4.30;1.52;;;;;;;27.32;67.22;101512.06;5031093;28;20079;-75
2021/07/18 07:21:03;;;;;;;4.03;1.58;;;;;;;27.44;66.07;101505.69;5030056;28;20099;-74
2021/07/18 07:23:29;;;;;;;5.13;1.40;;;;;;;27.53;65.07;101508.53;5029692;28;20116;-75
2021/07/18 07:25:54;;;;;;;4.82;1.30;;;;;;;27.40;66.25;101502.28;5029368;28;20037;-75
2021/07/18 07:28:20;;;;;;;5.90;1.63;;;;;;;27.49;65.41;101501.56;5030794;28;20072;-75
2021/07/18 07:30:46;;;;;;;4.47;1.52;;;;;;;27.59;64.29;101511.47;5030238;28;20079;-75
2021/07/18 07:33:12;;;;;;;2.47;1.40;;;;;;;27.75;61.98;101505.75;5028982;28;20053;-74
2021/07/18 07:35:38;;;;;;;3.35;1.20;;;;;;;27.70;63.80;101508.34;5029431;28;20087;-75
2021/07/18 07:38:06;;;;;;;5.65;1.63;;;;;;;27.82;64.08;101507.47;5030721;28;20099;-75
2021/07/18 07:40:32;;;;;;;1.75;1.20;;;;;;;27.91;63.37;101502.78;5029899;28;20040;-75
2021/07/18 07:42:57;;;;;;;5.45;1.70;;;;;;;27.91;63.31;101507.53;5026960;28;20041;-75
2021/07/18 07:45:23;;;;;;;4.03;1.45;;;;;;;27.94;62.70;101507.44;5029246;28;20091;-75
2021/07/18 07:47:49;;;;;;;4.80;1.48;;;;;;;28.03;63.02;101515.03;5029461;28;20124;-75
2021/07/18 07:50:14;;;;;;;4.95;1.77;;;;;;;28.07;63.04;101510.88;5028834;28;20037;-76
2021/07/18 07:52:40;;;;;;;5.03;1.48;;;;;;;28.05;63.97;101513.34;5019855;28;20033;-75
2021/07/18 07:55:07;;;;;;;5.05;1.50;;;;;;;28.02;64.20;101513.47;5028062;28;20636;-75
2021/07/18 07:57:33;;;;;;;5.22;1.27;;;;;;;28.13;62.31;101516.59;5029357;28;20378;-75
2021/07/18 07:59:59;;;;;;;5.55;1.45;;;;;;;28.16;60.99;101510.19;5029236;28;20525;-75
2021/07/18 08:02:24;;;;;;;4.72;1.55;;;;;;;28.10;61.81;101503.69;5029959;28;20042;-75
2021/07/18 08:04:50;;;;;;;4.43;1.50;;;;;;;28.17;62.36;101512.47;5019401;28;20115;-75
2021/07/18 08:07:15;;;;;;;3.72;1.30;;;;;;;28.40;60.96;101511.19;5025702;28;20048;-75
2021/07/18 08:09:41;;;;;;;1.95;1.40;;;;;;;28.52;60.23;101508.31;5029363;28;20033;-75
2021/07/18 08:12:06;;;;;;;4.07;1.20;;;;;;;28.53;61.69;101517.41;5028800;28;20033;-75
2021/07/18 08:14:32;;;;;;;4.82;1.52;;;;;;;28.41;61.63;101516.28;5028527;28;20029;-74
2021/07/18 08:16:57;;;;;;;6.07;1.40;;;;;;;28.43;60.35;101511.06;5030100;28;20059;-75
2021/07/18 08:19:23;;;;;;;5.15;1.40;;;;;;;28.61;61.06;101517.94;5016418;28;20025;-75
2021/07/18 08:21:48;;;;;;;4.78;1.20;;;;;;;28.45;60.16;101513.38;5029072;28;20057;-74
2021/07/18 08:24:14;;;;;;;4.18;1.33;;;;;;;28.61;61.01;101518.69;5028558;28;20041;-75
2021/07/18 08:26:39;;;;;;;3.75;1.38;;;;;;;28.61;61.39;101526.25;5028305;28;20120;-75
2021/07/18 08:29:05;;;;;;;3.38;1.20;;;;;;;28.85;59.35;101530.78;5005853;28;20030;-75
2021/07/18 08:31:31;;;;;;;5.10;1.40;;;;;;;29.00;57.82;101530.94;5011779;28;20041;-75
2021/07/18 08:33:56;;;;;;;2.70;1.25;;;;;;;28.92;57.37;101522.16;5030157;28;20037;-75
2021/07/18 08:36:22;;;;;;;4.32;1.58;;;;;;;28.98;58.33;101527.84;5031849;28;20040;-75
2021/07/18 08:38:48;;;;;;;2.47;1.33;;;;;;;29.17;59.22;101521.16;5032508;28;20029;-75
2021/07/18 08:41:14;;;;;;;2.35;1.27;;;;;;;29.17;58.25;101510.06;5033546;28;20038;-74
2021/07/18 08:43:40;;;;;;;3.05;1.27;;;;;;;29.20;57.67;101517.44;5024163;28;20075;-75
2021/07/18 08:46:06;;;;;;;5.35;1.40;;;;;;;29.39;58.59;101513.44;5033313;28;20044;-75
2021/07/18 08:48:31;;;;;;;3.50;1.08;;;;;;;29.52;56.42;101518.84;5031959;28;20045;-75
2021/07/18 08:50:57;;;;;;;5.30;1.50;;;;;;;29.38;58.55;101517.44;5031709;28;20042;-75
2021/07/18 08:53:27;;;;;;;2.83;1.20;;;;;;;29.63;55.83;101513.56;5027727;28;20040;-75
2021/07/18 08:55:53;;;;;;;4.18;1.20;;;;;;;29.67;55.89;101517.75;5031611;28;20087;-75
2021/07/18 08:58:18;;;;;;;3.63;1.20;;;;;;;29.82;56.07;101515.09;5032977;28;20067;-76
2021/07/18 09:00:44;;;;;;;7.28;1.58;;;;;;;29.75;55.46;101501.53;5030414;28;20020;-75
2021/07/18 09:03:17;;;;;;;3.25;1.48;;;;;;;29.90;55.32;101500.44;5033343;28;20036;-76
2021/07/18 09:05:44;;;;;;;3.55;1.42;;;;;;;29.95;54.78;101504.56;5031119;28;20044;-75
2021/07/18 09:08:20;;;;;;;3.55;1.50;;;;;;;29.55;54.35;101510.34;5027511;28;20022;-75
2021/07/18 09:10:50;;;;;;;4.70;1.30;;;;;;;29.53;56.31;101509.25;5030071;28;20087;-74
2021/07/18 09:13:19;;;;;;;3.30;1.50;;;;;;;29.80;56.98;101492.56;5032262;28;20641;-74
2021/07/18 09:15:52;;;;;;;3.60;1.40;;;;;;;29.76;56.57;101501.06;5030239;28;20177;-74
2021/07/18 09:18:20;;;;;;;4.38;1.50;;;;;;;29.88;55.68;101499.34;5031917;28;20394;-74
2021/07/18 09:20:48;;;;;;;6.28;1.58;;;;;;;30.14;55.12;101498.47;5014947;28;20773;-73
2021/07/18 09:23:28;;;;;;;3.47;1.35;;;;;;;30.13;55.66;101496.94;5032618;28;20025;-73
2021/07/18 09:26:20;;;;;;;6.75;1.48;;;;;;;30.00;54.47;101495.63;5030372;28;20057;-73
2021/07/18 09:28:47;;;;;;;3.65;1.30;;;;;;;29.84;55.14;101498.75;5032860;28;20367;-73
2021/07/18 09:31:27;;;;;;;5.57;1.60;;;;;;;29.54;56.61;101500.44;5032456;28;20037;-74
2021/07/18 09:34:14;;;;;;;7.43;1.42;;;;;;;29.84;56.91;101505.06;5011527;28;20113;-74
2021/07/18 09:36:40;;;;;;;4.53;1.48;;;;;;;29.92;55.44;101494.41;5028228;28;20045;-74
2021/07/18 09:39:11;;;;;;;3.30;1.50;;;;;;;29.95;53.05;101491.44;5032705;28;20041;-74
2021/07/18 09:41:37;;;;;;;4.47;1.45;;;;;;;29.97;54.78;101497.31;5031091;28;20029;-74
2021/07/18 09:44:03;;;;;;;4.88;1.27;;;;;;;30.27;54.26;101490.72;5031877;28;20030;-74
2021/07/18 09:46:33;;;;;;;2.75;1.40;;;;;;;30.28;53.44;101494.28;5031601;28;20120;-74
2021/07/18 09:49:02;;;;;;;4.75;1.67;;;;;;;30.60;54.62;101493.53;5032059;28;20064;-73
2021/07/18 09:51:27;;;;;;;6.03;1.77;;;;;;;30.85;54.08;101492.31;5019442;28;20128;-73
2021/07/18 09:54:12;;;;;;;7.28;1.70;;;;;;;30.81;51.28;101494.47;5028968;28;20112;-74
2021/07/18 09:56:41;;;;;;;6.18;1.77;;;;;;;30.78;52.22;101490.59;5031777;28;20029;-73
2021/07/18 09:59:07;;;;;;;3.03;1.33;;;;;;;30.64;51.35;101488.53;5027962;28;20683;-74
2021/07/18 10:01:34;;;;;;;8.50;1.40;;;;;;;30.68;53.18;101489.13;5031621;28;20037;-74
2021/07/18 10:04:01;;;;;;;4.03;1.30;;;;;;;30.73;51.72;101482.16;5031424;28;20508;-74
2021/07/18 10:06:28;;;;;;;2.83;1.27;;;;;;;30.99;51.89;101497.16;5029333;28;20033;-74
2021/07/18 10:08:59;;;;;;;3.78;1.42;;;;;;;31.10;50.64;101484.22;5026683;28;20107;-73
2021/07/18 10:11:26;;;;;;;2.97;1.40;;;;;;;31.04;50.04;101488.13;5030287;28;20446;-73
2021/07/18 10:13:54;;;;;;;2.00;1.08;;;;;;;30.83;51.47;101478.09;5030026;28;20037;-74
2021/07/18 10:16:21;;;;;;;2.38;1.40;;;;;;;30.82;53.26;101491.19;5018347;28;20041;-74
2021/07/18 10:18:49;;;;;;;3.50;1.15;;;;;;;30.80;52.52;101484.56;5031832;28;20037;-74
2021/07/18 10:21:20;;;;;;;3.50;1.55;;;;;;;30.95;52.39;101479.88;5031303;28;20172;-74
2021/07/18 10:23:47;;;;;;;3.28;1.35;;;;;;;31.27;51.27;101467.84;5028276;28;20042;-74
2021/07/18 10:26:25;;;;;;;3.72;1.55;;;;;;;31.42;51.48;101460.28;5028200;28;20033;-74
2021/07/18 10:28:52;;;;;;;5.10;1.58;;;;;;;31.73;49.92;101459.81;5031554;28;20052;-74
2021/07/18 10:31:35;;;;;;;7.05;1.33;;;;;;;31.81;51.87;101472.09;5029708;28;20099;-74
2021/07/18 10:34:03;;;;;;;4.22;1.20;;;;;;;31.82;49.48;101474.41;5028544;28;20033;-74
2021/07/18 10:36:28;;;;;;;3.72;1.38;;;;;;;31.64;49.37;101469.06;5030607;28;20553;-74
2021/07/18 10:38:54;;;;;;;4.38;1.08;;;;;;;31.51;49.82;101470.59;5030272;28;20113;-74
2021/07/18 10:41:52;;;;;;;7.35;1.40;;;;;;;31.02;51.19;101463.56;5022679;28;20085;-73
2021/07/18 10:44:18;;;;;;;2.80;1.23;;;;;;;31.19;51.55;101457.53;4988744;28;20515;-74
2021/07/18 10:46:43;;;;;;;3.08;1.20;;;;;;;31.24;50.57;101457.66;5025965;28;20049;-73
2021/07/18 10:49:13;;;;;;;3.83;1.20;;;;;;;31.14;50.02;101461.78;5026654;28;20033;-76
2021/07/18 10:51:40;;;;;;;5.82;1.38;;;;;;;30.88;50.08;101464.28;5029683;28;20033;-75
2021/07/18 10:54:21;;;;;;;5.43;1.38;;;;;;;30.84;50.64;101455.34;5028537;28;20410;-74
2021/07/18 10:56:51;;;;;;;7.82;1.25;;;;;;;31.01;50.93;101456.44;5037177;28;20099;-74
2021/07/18 10:59:38;;;;;;;5.63;1.70;;;;;;;30.94;51.56;101456.03;5029475;28;20037;-74
2021/07/18 11:02:04;;;;;;;5.30;1.70;;;;;;;31.19;52.81;101460.31;5030377;28;20148;-76
2021/07/18 11:04:41;;;;;;;4.47;1.50;;;;;;;30.75;52.03;101455.38;5026818;28;20124;-76
2021/07/18 11:07:25;;;;;;;3.10;1.27;;;;;;;30.74;52.04;101453.84;5025906;28;20044;-76
2021/07/18 11:10:00;;;;;;;3.30;1.17;;;;;;;31.04;51.60;101451.94;5031057;28;20064;-75
2021/07/18 11:12:44;;;;;;;6.90;1.58;;;;;;;30.75;50.36;101449.81;5014747;28;20486;-76
2021/07/18 11:15:15;;;;;;;7.15;1.50;;;;;;;30.96;50.35;101445.97;5024975;28;20033;-74
2021/07/18 11:18:08;;;;;;;4.18;1.30;;;;;;;31.01;49.51;101439.00;5029453;28;20033;-74
2021/07/18 11:20:52;;;;;;;4.35;1.33;;;;;;;31.15;49.43;101434.69;5030360;28;20053;-74
2021/07/18 11:23:37;;;;;;;4.50;1.20;;;;;;;31.04;50.49;101432.47;5031127;28;20065;-73